createdAt,value
2022-12-25T00:01:32.354Z,10.32
2022-12-25T00:04:01.492Z,9.92
2022-12-25T00:06:29.128Z,10.43
2022-12-25T00:08:55.975Z,9.12
2022-12-25T00:11:23.232Z,10.50
2022-12-25T00:13:50.411Z,10.42
2022-12-25T00:16:24.647Z,10.38
2022-12-25T00:18:55.232Z,10.43
2022-12-25T00:21:24.766Z,10.43
2022-12-25T00:23:57.080Z,10.30
2022-12-25T00:26:25.141Z,10.21
2022-12-25T00:28:54.022Z,10.02
2022-12-25T00:31:21.488Z,9.86
2022-12-25T00:33:54.741Z,10.23
2022-12-25T00:36:23.214Z,10.21
2022-12-25T00:38:51.964Z,10.20
2022-12-25T00:41:43.012Z,9.94
2022-12-25T00:44:14.606Z,10.21
2022-12-25T00:46:42.540Z,9.98
2022-12-25T00:49:10.871Z,10.36
2022-12-25T00:51:38.136Z,10.30
2022-12-25T00:54:04.873Z,9.80
2022-12-25T00:56:31.545Z,10.22
2022-12-25T00:58:58.565Z,10.39
2022-12-25T01:01:25.528Z,10.35
2022-12-25T01:03:52.299Z,10.38
2022-12-25T01:06:19.038Z,10.32
2022-12-25T01:09:04.377Z,10.10
2022-12-25T01:11:31.367Z,10.02
2022-12-25T01:13:58.151Z,10.52
2022-12-25T01:16:25.119Z,10.76
2022-12-25T01:18:52.142Z,10.52
2022-12-25T01:21:21.318Z,10.44
2022-12-25T01:23:49.456Z,10.56
2022-12-25T01:26:17.423Z,10.67
2022-12-25T01:28:44.422Z,10.64
2022-12-25T01:31:13.694Z,10.64
2022-12-25T01:33:41.617Z,10.61
2022-12-25T01:36:17.488Z,10.57
2022-12-25T01:38:45.604Z,9.98
2022-12-25T01:41:19.088Z,10.21
2022-12-25T01:44:03.336Z,10.42
2022-12-25T01:46:32.536Z,10.67
2022-12-25T01:49:03.590Z,11.08
2022-12-25T01:51:32.157Z,11.08
2022-12-25T01:54:03.906Z,11.02
2022-12-25T01:56:32.160Z,10.84
2022-12-25T01:58:59.686Z,10.80
2022-12-25T02:01:27.243Z,10.51
2022-12-25T02:03:59.477Z,10.56
2022-12-25T02:06:30.777Z,10.46
2022-12-25T02:08:59.398Z,10.35
2022-12-25T02:11:44.697Z,10.41
2022-12-25T02:14:12.832Z,10.32
2022-12-25T02:16:58.124Z,10.44
2022-12-25T02:19:59.468Z,10.38
2022-12-25T02:22:56.682Z,10.30
2022-12-25T02:25:37.761Z,10.40
2022-12-25T02:28:33.881Z,10.25
2022-12-25T02:31:27.740Z,10.30
2022-12-25T02:34:08.918Z,10.19
2022-12-25T02:36:44.883Z,10.27
2022-12-25T02:39:56.705Z,10.36
2022-12-25T02:43:26.124Z,10.46
2022-12-25T02:46:28.376Z,10.40
2022-12-25T02:49:28.086Z,10.36
2022-12-25T02:52:18.522Z,10.24
2022-12-25T02:55:09.424Z,10.22
2022-12-25T02:58:00.578Z,10.21
2022-12-25T03:00:48.806Z,10.23
2022-12-25T03:03:37.580Z,10.10
2022-12-25T03:06:29.017Z,10.16
2022-12-25T03:09:18.923Z,10.04
2022-12-25T03:11:54.520Z,9.85
2022-12-25T03:14:39.993Z,10.10
2022-12-25T03:17:09.457Z,10.09
2022-12-25T03:19:54.692Z,10.12
2022-12-25T03:22:48.800Z,10.10
2022-12-25T03:25:35.816Z,10.03
2022-12-25T03:28:03.485Z,9.84
2022-12-25T03:31:06.086Z,9.90
2022-12-25T03:34:11.613Z,9.90
2022-12-25T03:37:17.047Z,9.89
2022-12-25T03:39:55.566Z,9.84
2022-12-25T03:42:42.167Z,9.86
2022-12-25T03:45:56.336Z,9.68
2022-12-25T03:48:43.146Z,9.75
2022-12-25T03:51:32.269Z,9.57
2022-12-25T03:54:23.411Z,9.85
2022-12-25T03:57:10.644Z,9.46
2022-12-25T03:59:56.134Z,9.40
2022-12-25T04:02:42.153Z,9.65
2022-12-25T04:05:27.914Z,10.06
2022-12-25T04:08:13.190Z,9.99
2022-12-25T04:10:58.573Z,9.66
2022-12-25T04:14:01.310Z,9.99
2022-12-25T04:16:47.623Z,10.02
2022-12-25T04:19:32.849Z,9.91
2022-12-25T04:22:18.361Z,9.97
2022-12-25T04:25:04.005Z,9.67
2022-12-25T04:27:50.200Z,10.01
2022-12-25T04:30:38.165Z,9.96
2022-12-25T04:33:23.595Z,9.91
2022-12-25T04:36:08.944Z,9.90
2022-12-25T04:38:37.014Z,9.90
2022-12-25T04:41:07.284Z,9.96
2022-12-25T04:43:34.472Z,10.05
2022-12-25T04:46:02.923Z,10.05
2022-12-25T04:48:33.164Z,10.17
2022-12-25T04:51:21.215Z,9.99
2022-12-25T04:53:49.711Z,10.13
2022-12-25T04:56:17.576Z,10.18
2022-12-25T04:58:45.232Z,10.09
2022-12-25T05:01:12.673Z,9.75
2022-12-25T05:03:40.010Z,10.20
2022-12-25T05:06:07.387Z,10.00
2022-12-25T05:08:36.602Z,10.08
2022-12-25T05:11:08.804Z,10.20
2022-12-25T05:13:38.357Z,9.84
2022-12-25T05:16:13.239Z,10.11
2022-12-25T05:18:40.272Z,9.94
2022-12-25T05:21:08.088Z,10.15
2022-12-25T05:23:36.569Z,10.06
2022-12-25T05:26:07.602Z,10.10
2022-12-25T05:28:37.713Z,10.10
2022-12-25T05:31:04.430Z,9.98
2022-12-25T05:33:31.436Z,10.11
2022-12-25T05:35:58.765Z,9.99
2022-12-25T05:38:25.756Z,9.80
2022-12-25T05:40:52.626Z,9.77
2022-12-25T05:43:19.727Z,10.00
2022-12-25T05:45:46.539Z,10.11
2022-12-25T05:48:13.636Z,9.96
2022-12-25T05:50:40.273Z,10.14
2022-12-25T05:53:09.080Z,10.04
2022-12-25T05:55:37.356Z,8.65
2022-12-25T05:58:04.942Z,10.10
2022-12-25T06:00:32.305Z,10.11
2022-12-25T06:03:00.112Z,10.08
2022-12-25T06:05:27.016Z,9.79
2022-12-25T06:07:53.684Z,10.09
2022-12-25T06:10:20.476Z,10.03
2022-12-25T06:12:48.922Z,10.05
2022-12-25T06:15:15.712Z,10.11
2022-12-25T06:17:42.451Z,9.82
2022-12-25T06:20:09.580Z,10.03
2022-12-25T06:22:36.665Z,10.19
2022-12-25T06:25:03.584Z,10.09
2022-12-25T06:27:30.405Z,10.19
2022-12-25T06:29:57.149Z,9.98
2022-12-25T06:32:23.995Z,10.20
2022-12-25T06:34:50.973Z,10.08
2022-12-25T06:37:18.014Z,10.22
2022-12-25T06:39:44.725Z,10.02
2022-12-25T06:42:11.600Z,10.01
2022-12-25T06:44:39.025Z,10.25
2022-12-25T06:47:05.867Z,10.25
2022-12-25T06:49:33.888Z,9.99
2022-12-25T06:52:00.681Z,10.27
2022-12-25T06:54:27.570Z,9.93
2022-12-25T06:56:54.257Z,10.28
2022-12-25T06:59:21.107Z,10.28
2022-12-25T07:01:49.595Z,10.27
2022-12-25T07:04:22.400Z,9.87
2022-12-25T07:06:49.046Z,10.11
2022-12-25T07:09:15.829Z,10.26
2022-12-25T07:11:42.603Z,10.27
2022-12-25T07:14:23.220Z,10.27
2022-12-25T07:16:50.899Z,10.30
2022-12-25T07:19:19.507Z,10.04
2022-12-25T07:21:46.477Z,10.24
2022-12-25T07:24:20.896Z,10.31
2022-12-25T07:26:49.557Z,10.33
2022-12-25T07:29:19.822Z,10.20
2022-12-25T07:31:47.190Z,10.30
2022-12-25T07:34:14.043Z,10.39
2022-12-25T07:36:40.738Z,10.30
2022-12-25T07:39:07.435Z,10.18
2022-12-25T07:41:34.201Z,10.26
2022-12-25T07:44:04.490Z,10.12
2022-12-25T07:46:31.798Z,10.32
2022-12-25T07:48:58.718Z,10.38
2022-12-25T07:51:25.619Z,10.35
2022-12-25T07:53:52.902Z,10.27
2022-12-25T07:56:20.643Z,10.43
2022-12-25T07:58:54.632Z,10.62
2022-12-25T08:01:24.430Z,10.44
2022-12-25T08:03:56.374Z,10.68
2022-12-25T08:06:24.800Z,10.67
2022-12-25T08:08:51.639Z,10.47
2022-12-25T08:11:18.584Z,10.72
2022-12-25T08:13:45.349Z,10.79
2022-12-25T08:16:12.312Z,10.81
2022-12-25T08:18:41.280Z,10.00
2022-12-25T08:21:11.157Z,10.84
2022-12-25T08:23:40.431Z,10.84
2022-12-25T08:26:08.768Z,10.85
2022-12-25T08:28:37.614Z,10.84
2022-12-25T08:31:24.914Z,10.96
2022-12-25T08:33:55.642Z,10.75
2022-12-25T08:36:23.183Z,11.08
2022-12-25T08:38:53.450Z,10.80
2022-12-25T08:41:23.278Z,11.03
2022-12-25T08:43:50.401Z,11.06
2022-12-25T08:46:17.332Z,11.13
2022-12-25T08:48:51.122Z,10.86
2022-12-25T08:51:27.365Z,10.88
2022-12-25T08:53:59.760Z,11.16
2022-12-25T08:56:27.959Z,11.17
2022-12-25T08:58:54.755Z,11.16
2022-12-25T09:01:21.631Z,10.68
2022-12-25T09:03:48.459Z,11.01
2022-12-25T09:06:18.984Z,11.22
2022-12-25T09:08:49.175Z,11.09
2022-12-25T09:11:17.786Z,11.18
2022-12-25T09:13:44.543Z,11.20
2022-12-25T09:16:16.368Z,11.23
2022-12-25T09:18:43.141Z,11.01
2022-12-25T09:21:14.813Z,11.41
2022-12-25T09:23:42.351Z,11.01
2022-12-25T09:26:15.693Z,11.45
2022-12-25T09:28:50.330Z,11.42
2022-12-25T09:31:22.680Z,11.31
2022-12-25T09:33:50.304Z,11.22
2022-12-25T09:36:18.012Z,11.09
2022-12-25T09:38:44.824Z,10.90
2022-12-25T09:41:33.908Z,10.76
2022-12-25T09:44:03.806Z,11.22
2022-12-25T09:46:42.149Z,11.08
2022-12-25T09:49:22.018Z,10.83
2022-12-25T09:52:03.863Z,11.21
2022-12-25T09:54:45.708Z,11.13
2022-12-25T09:57:13.943Z,11.22
2022-12-25T09:59:43.911Z,10.84
2022-12-25T10:02:15.165Z,10.89
2022-12-25T10:04:48.236Z,11.22
2022-12-25T10:07:30.624Z,11.20
2022-12-25T10:10:09.623Z,10.97
2022-12-25T10:12:41.991Z,11.04
2022-12-25T10:15:45.639Z,10.76
2022-12-25T10:18:42.062Z,11.11
2022-12-25T10:21:14.500Z,11.11
2022-12-25T10:23:48.477Z,11.25
2022-12-25T10:26:23.615Z,11.26
2022-12-25T10:29:10.023Z,11.13
2022-12-25T10:31:39.906Z,11.15
2022-12-25T10:34:09.476Z,11.04
2022-12-25T10:36:36.233Z,11.22
2022-12-25T10:39:03.411Z,11.15
2022-12-25T10:42:04.488Z,11.19
2022-12-25T10:44:33.311Z,11.13
2022-12-25T10:47:06.139Z,10.69
2022-12-25T10:49:37.536Z,10.96
2022-12-25T10:52:23.209Z,10.89
2022-12-25T10:54:59.185Z,11.08
2022-12-25T10:57:29.853Z,11.09
2022-12-25T10:59:57.197Z,11.09
2022-12-25T11:02:39.447Z,11.02
2022-12-25T11:05:11.499Z,11.08
2022-12-25T11:07:50.978Z,11.11
2022-12-25T11:10:28.572Z,11.11
2022-12-25T11:12:56.228Z,11.10
2022-12-25T11:15:49.882Z,11.15
2022-12-25T11:18:28.969Z,10.90
2022-12-25T11:21:14.426Z,10.75
2022-12-25T11:23:46.805Z,11.10
2022-12-25T11:26:17.205Z,11.24
2022-12-25T11:28:48.629Z,11.19
2022-12-25T11:31:21.204Z,11.18
2022-12-25T11:34:14.773Z,11.00
2022-12-25T11:36:50.218Z,10.66
2022-12-25T11:39:37.633Z,11.11
2022-12-25T11:42:37.542Z,10.40
2022-12-25T11:45:20.149Z,11.13
2022-12-25T11:47:52.866Z,11.13
2022-12-25T11:50:50.602Z,11.10
2022-12-25T11:53:20.275Z,11.20
2022-12-25T11:55:54.988Z,11.23
2022-12-25T11:58:50.680Z,10.66
2022-12-25T12:01:29.473Z,11.23
2022-12-25T12:04:00.271Z,11.15
2022-12-25T12:06:35.740Z,11.23
2022-12-25T12:09:25.325Z,11.21
2022-12-25T12:12:35.786Z,11.33
2022-12-25T12:15:12.807Z,11.38
2022-12-25T12:17:39.804Z,11.29
2022-12-25T12:20:33.460Z,11.41
2022-12-25T12:23:05.237Z,11.43
2022-12-25T12:25:32.081Z,11.31
2022-12-25T12:28:21.595Z,11.08
2022-12-25T12:31:11.905Z,11.36
2022-12-25T12:33:58.041Z,11.51
2022-12-25T12:36:36.184Z,11.49
2022-12-25T12:39:06.082Z,11.57
2022-12-25T12:41:59.690Z,11.36
2022-12-25T12:44:31.301Z,11.57
2022-12-25T12:46:58.430Z,11.54
2022-12-25T12:49:32.396Z,11.61
2022-12-25T12:52:44.166Z,11.61
2022-12-25T12:55:15.183Z,11.65
2022-12-25T12:57:43.424Z,11.67
2022-12-25T13:00:21.318Z,11.73
2022-12-25T13:02:57.426Z,11.00
2022-12-25T13:05:37.632Z,11.73
2022-12-25T13:08:45.373Z,11.78
2022-12-25T13:11:20.902Z,11.80
2022-12-25T13:13:49.728Z,11.85
2022-12-25T13:16:25.058Z,10.98
2022-12-25T13:18:53.705Z,11.79
2022-12-25T13:21:24.667Z,11.65
2022-12-25T13:23:57.694Z,11.90
2022-12-25T13:26:26.907Z,12.04
2022-12-25T13:28:59.533Z,11.84
2022-12-25T13:31:30.736Z,12.00
2022-12-25T13:34:02.997Z,11.87
2022-12-25T13:36:31.712Z,11.96
2022-12-25T13:39:00.375Z,11.98
2022-12-25T13:42:04.830Z,11.95
2022-12-25T13:44:46.291Z,11.94
2022-12-25T13:47:35.847Z,12.13
2022-12-25T13:50:20.186Z,12.16
2022-12-25T13:52:50.900Z,11.98
2022-12-25T13:55:23.609Z,12.13
2022-12-25T13:57:53.674Z,12.16
2022-12-25T14:00:37.861Z,11.77
2022-12-25T14:03:17.677Z,12.32
2022-12-25T14:05:44.576Z,12.02
2022-12-25T14:08:24.116Z,12.19
2022-12-25T14:10:52.681Z,11.90
2022-12-25T14:13:23.602Z,12.09
2022-12-25T14:16:00.861Z,11.87
2022-12-25T14:18:29.868Z,12.04
2022-12-25T14:21:11.033Z,12.08
2022-12-25T14:23:47.258Z,12.03
2022-12-25T14:26:22.040Z,11.99
2022-12-25T14:28:56.042Z,11.91
2022-12-25T14:31:25.097Z,11.52
2022-12-25T14:33:57.880Z,12.05
2022-12-25T14:36:25.088Z,12.06
2022-12-25T14:39:06.999Z,11.87
2022-12-25T14:41:41.788Z,11.72
2022-12-25T14:44:44.133Z,12.06
2022-12-25T14:47:10.632Z,12.05
2022-12-25T14:49:38.146Z,11.33
2022-12-25T14:52:33.640Z,12.10
2022-12-25T14:55:03.302Z,12.06
2022-12-25T14:57:39.097Z,12.08
2022-12-25T15:00:21.420Z,12.01
2022-12-25T15:02:50.216Z,12.00
2022-12-25T15:05:32.175Z,12.05
2022-12-25T15:08:13.919Z,12.07
2022-12-25T15:13:28.727Z,11.95
2022-12-25T15:16:08.379Z,12.04
2022-12-25T15:18:41.361Z,12.06
2022-12-25T15:21:19.140Z,12.00
2022-12-25T15:23:46.418Z,11.85
2022-12-25T15:26:14.249Z,11.56
2022-12-25T15:28:41.555Z,11.98
2022-12-25T15:31:35.932Z,11.85
2022-12-25T15:34:15.688Z,11.80
2022-12-25T15:36:42.363Z,11.42
2022-12-25T15:39:09.030Z,11.96
2022-12-25T15:41:56.173Z,11.52
2022-12-25T15:44:26.056Z,11.84
2022-12-25T15:46:57.192Z,11.84
2022-12-25T15:49:27.080Z,11.49
2022-12-25T15:51:53.830Z,11.43
2022-12-25T15:54:23.124Z,11.76
2022-12-25T15:56:58.877Z,11.81
2022-12-25T15:59:35.473Z,11.77
2022-12-25T16:02:02.379Z,11.67
2022-12-25T16:04:32.727Z,11.72
2022-12-25T16:06:59.922Z,11.55
2022-12-25T16:09:29.622Z,11.71
2022-12-25T16:11:56.519Z,11.74
2022-12-25T16:14:23.380Z,11.48
2022-12-25T16:16:50.116Z,11.75
2022-12-25T16:19:20.068Z,11.77
2022-12-25T16:21:48.169Z,11.68
2022-12-25T16:24:17.003Z,11.63
2022-12-25T16:26:44.167Z,11.44
2022-12-25T16:29:11.376Z,11.32
2022-12-25T16:31:39.985Z,11.64
2022-12-25T16:34:08.932Z,11.51
2022-12-25T16:36:36.330Z,11.66
2022-12-25T16:39:06.210Z,11.65
2022-12-25T16:41:33.267Z,11.63
2022-12-25T16:44:04.875Z,11.34
2022-12-25T16:46:32.400Z,11.68
2022-12-25T16:48:59.274Z,11.60
2022-12-25T16:51:26.097Z,11.59
2022-12-25T16:53:54.815Z,11.71
2022-12-25T16:56:26.020Z,11.69
2022-12-25T16:58:52.802Z,11.28
2022-12-25T17:01:23.066Z,11.68
2022-12-25T17:03:51.171Z,11.66
2022-12-25T17:06:22.989Z,11.61
2022-12-25T17:08:50.362Z,11.62
2022-12-25T17:11:20.958Z,11.53
2022-12-25T17:13:48.273Z,11.47
2022-12-25T17:16:22.954Z,11.60
2022-12-25T17:18:57.315Z,11.08
2022-12-25T17:21:24.940Z,11.54
2022-12-25T17:23:55.337Z,11.24
2022-12-25T17:26:24.935Z,11.63
2022-12-25T17:28:52.044Z,11.64
2022-12-25T17:31:18.958Z,11.53
2022-12-25T17:33:46.267Z,10.77
2022-12-25T17:36:16.963Z,11.57
2022-12-25T17:38:44.910Z,11.66
2022-12-25T17:41:13.615Z,11.24
2022-12-25T17:43:43.553Z,11.47
2022-12-25T17:46:16.918Z,11.61
2022-12-25T17:48:44.834Z,11.63
2022-12-25T17:51:16.469Z,11.53
2022-12-25T17:53:46.077Z,11.53
2022-12-25T17:56:14.127Z,11.62
2022-12-25T17:58:41.887Z,11.06
2022-12-25T18:01:12.487Z,11.62
2022-12-25T18:03:39.572Z,11.59
2022-12-25T18:06:08.747Z,11.37
2022-12-25T18:08:39.572Z,11.45
2022-12-25T18:11:15.430Z,11.59
2022-12-25T18:13:44.876Z,11.59
2022-12-25T18:16:13.151Z,11.64
2022-12-25T18:18:45.206Z,11.66
2022-12-25T18:21:16.492Z,11.60
2022-12-25T18:23:43.478Z,11.57
2022-12-25T18:26:13.613Z,11.43
2022-12-25T18:28:42.710Z,11.52
2022-12-25T18:31:19.813Z,11.47
2022-12-25T18:33:47.535Z,11.54
2022-12-25T18:36:17.529Z,11.29
2022-12-25T18:38:44.665Z,11.76
2022-12-25T18:41:14.700Z,11.71
2022-12-25T18:43:55.540Z,11.65
2022-12-25T18:46:27.483Z,11.61
2022-12-25T18:48:56.815Z,11.44
2022-12-25T18:51:24.332Z,11.44
2022-12-25T18:53:51.792Z,11.53
2022-12-25T18:56:20.119Z,11.38
2022-12-25T18:58:48.189Z,11.51
2022-12-25T19:01:16.529Z,11.50
2022-12-25T19:03:43.855Z,11.35
2022-12-25T19:06:17.788Z,11.42
2022-12-25T19:08:44.676Z,11.57
2022-12-25T19:11:14.484Z,11.23
2022-12-25T19:13:41.458Z,11.57
2022-12-25T19:16:08.540Z,11.55
2022-12-25T19:18:35.449Z,11.57
2022-12-25T19:21:04.434Z,11.06
2022-12-25T19:23:31.587Z,11.55
2022-12-25T19:26:07.219Z,11.43
2022-12-25T19:28:34.340Z,11.52
2022-12-25T19:31:01.663Z,11.55
2022-12-25T19:33:30.880Z,11.59
2022-12-25T19:36:01.806Z,11.58
2022-12-25T19:38:28.618Z,11.44
2022-12-25T19:41:03.559Z,11.41
2022-12-25T19:43:43.781Z,10.84
2022-12-25T19:46:20.283Z,11.51
2022-12-25T19:48:50.625Z,11.37
2022-12-25T19:51:29.161Z,11.51
2022-12-25T19:53:56.603Z,11.38
2022-12-25T19:56:24.523Z,11.54
2022-12-25T19:58:51.465Z,11.48
2022-12-25T20:01:21.662Z,11.39
2022-12-25T20:03:48.966Z,11.38
2022-12-25T20:06:20.108Z,11.44
2022-12-25T20:08:48.450Z,11.09
2022-12-25T20:11:20.237Z,11.41
2022-12-25T20:13:49.576Z,11.38
2022-12-25T20:16:17.171Z,11.18
2022-12-25T20:18:44.968Z,11.52
2022-12-25T20:21:27.623Z,11.53
2022-12-25T20:23:57.368Z,11.54
2022-12-25T20:26:28.495Z,11.43
2022-12-25T20:28:55.866Z,11.51
2022-12-25T20:31:31.108Z,11.44
2022-12-25T20:34:07.812Z,11.51
2022-12-25T20:36:38.135Z,11.09
2022-12-25T20:39:10.023Z,11.55
2022-12-25T20:41:37.630Z,11.19
2022-12-25T20:44:06.436Z,11.56
2022-12-25T20:46:33.146Z,11.53
2022-12-25T20:49:01.861Z,11.51
2022-12-25T20:51:28.665Z,11.38
2022-12-25T20:53:55.767Z,11.42
2022-12-25T20:56:26.140Z,11.29
2022-12-25T20:59:02.452Z,11.45
2022-12-25T21:01:31.369Z,11.53
2022-12-25T21:04:03.641Z,11.50
2022-12-25T21:06:33.108Z,11.40
2022-12-25T21:09:00.344Z,11.12
2022-12-25T21:11:28.032Z,11.47
2022-12-25T21:13:54.972Z,11.48
2022-12-25T21:16:24.880Z,11.49
2022-12-25T21:18:54.551Z,11.51
2022-12-25T21:21:22.908Z,11.51
2022-12-25T21:23:57.203Z,11.48
2022-12-25T21:26:29.783Z,10.65
2022-12-25T21:29:00.724Z,11.07
2022-12-25T21:31:29.228Z,11.32
2022-12-25T21:33:57.834Z,11.37
2022-12-25T21:36:32.569Z,10.88
2022-12-25T21:39:07.281Z,11.31
2022-12-25T21:41:36.853Z,11.40
2022-12-25T21:44:03.884Z,11.23
2022-12-25T21:46:31.990Z,11.15
2022-12-25T21:49:04.332Z,11.16
2022-12-25T21:51:52.246Z,11.27
2022-12-25T21:54:21.178Z,11.21
2022-12-25T21:56:50.093Z,11.05
2022-12-25T21:59:20.588Z,11.14
2022-12-25T22:01:49.139Z,11.10
2022-12-25T22:04:18.859Z,11.06
2022-12-25T22:07:04.671Z,11.10
2022-12-25T22:09:31.829Z,11.04
2022-12-25T22:12:18.045Z,11.09
2022-12-25T22:14:59.038Z,11.06
2022-12-25T22:17:51.362Z,10.93
2022-12-25T22:20:18.584Z,11.06
2022-12-25T22:22:47.477Z,10.98
2022-12-25T22:25:16.340Z,11.03
2022-12-25T22:27:45.675Z,11.01
2022-12-25T22:30:18.012Z,10.51
2022-12-25T22:32:51.028Z,10.99
2022-12-25T22:35:19.154Z,10.95
2022-12-25T22:37:46.282Z,10.89
2022-12-25T22:40:16.235Z,10.96
2022-12-25T22:42:43.482Z,10.95
2022-12-25T22:45:12.630Z,10.45
2022-12-25T22:47:40.519Z,10.90
2022-12-25T22:50:09.290Z,10.73
2022-12-25T22:52:36.934Z,10.65
2022-12-25T22:55:09.350Z,10.93
2022-12-25T22:57:38.870Z,10.90
2022-12-25T23:00:08.995Z,10.81
2022-12-25T23:02:37.163Z,10.57
2022-12-25T23:05:04.165Z,10.95
2022-12-25T23:07:34.643Z,10.69
2022-12-25T23:10:01.372Z,10.86
2022-12-25T23:12:49.733Z,10.83
2022-12-25T23:15:17.461Z,10.41
2022-12-25T23:18:03.728Z,10.94
2022-12-25T23:20:52.088Z,10.58
2022-12-25T23:23:38.536Z,10.82
2022-12-25T23:26:08.429Z,10.96
2022-12-25T23:28:58.069Z,10.48
2022-12-25T23:31:43.127Z,10.93
2022-12-25T23:34:23.487Z,9.91
2022-12-25T23:36:54.810Z,10.83
2022-12-25T23:39:25.110Z,10.34
2022-12-25T23:42:13.288Z,10.75
2022-12-25T23:44:48.540Z,10.80
2022-12-25T23:47:17.027Z,10.89
2022-12-25T23:49:44.576Z,10.67
2022-12-25T23:55:01.241Z,10.38
2022-12-25T23:57:29.266Z,10.87
